This is the latest recevied weather packets stored in our database for station/object AA7DG. If no packets are shown the sender has not sent any weather packets the latest 10 day(s).
| Time | Temp. | Humidity | Pressure | Rain* | Wind** | Luminosity | Snow |
|---|---|---|---|---|---|---|---|
| 1777653001 | 14.44° C | 54% | 1020 hPa | - | - | - | - |
| 1777651502 | 12.22° C | 58% | 1020 hPa | - | - | - | - |
| 1777651206 | 12.22° C | 58% | 1020 hPa | - | - | - | - |
| 1777649718 | 11.67° C | 62% | 1020.3 hPa | - | - | - | - |
| 1777647900 | 10.56° C | 70% | 1020.3 hPa | - | - | - | - |
| 1777647320 | 9.44° C | 74% | 1020.3 hPa | - | - | - | - |
| 1777646702 | 8.33° C | 78% | 1020.3 hPa | - | - | - | - |
| 1777645801 | 6.67° C | 82% | 1020.3 hPa | - | - | - | - |
| 1777645507 | 6.67° C | 84% | 1020.3 hPa | - | - | - | - |
| 1777642501 | 3.89° C | 91% | 1020 hPa | - | - | - | - |
| 1777641000 | 3.33° C | 91% | 1019.6 hPa | - | - | - | - |
| 1777640106 | 3.33° C | 90% | 1019.6 hPa | - | - | - | - |
| 1777638603 | 3.33° C | 89% | 1019.3 hPa | - | - | - | - |
| 1777632607 | 5° C | 85% | 1019.3 hPa | - | - | - | - |
| 1777631116 | 5° C | 85% | 1019.3 hPa | - | - | - | - |
| 1777629907 | 5.56° C | 83% | 1019 hPa | - | - | - | - |
| 1777628101 | 6.11° C | 82% | 1019.3 hPa | - | - | - | - |
| 1777627807 | 6.11° C | 81% | 1019.3 hPa | - | - | - | - |
| 1777622407 | 7.78° C | 76% | 1019.3 hPa | - | - | - | - |
| 1777621806 | 7.78° C | 75% | 1019.3 hPa | - | - | - | - |
| 1777621201 | 8.33° C | 73% | 1019.3 hPa | - | - | - | - |
| 1777620917 | 8.33° C | 73% | 1019.3 hPa | - | - | - | - |
| 1777613707 | 11.67° C | 60% | 1019 hPa | - | - | - | - |
| 1777612201 | 12.78° C | 56% | 1019 hPa | - | - | - | - |
| 1777611306 | 12.78° C | 53% | 1019 hPa | - | - | - | - |
* Rain since midnight (hover to see other rain measurements)
** Current wind speed in m/s (hover to see current wind gust speed)